sensor_id;sensor_type;location;lat;lon;timestamp;pressure;altitude;pressure_sealevel;temperature;humidity
70589;BME280;58152;49.202;18.744;2023-05-23T00:02:04;97137.72;;;17.31;57.28
70589;BME280;58152;49.202;18.744;2023-05-23T00:04:33;97131.56;;;17.30;57.39
70589;BME280;58152;49.202;18.744;2023-05-23T00:07:03;97131.44;;;17.20;57.52
70589;BME280;58152;49.202;18.744;2023-05-23T00:09:29;97134.56;;;17.14;57.29
70589;BME280;58152;49.202;18.744;2023-05-23T00:11:57;97131.41;;;17.09;57.53
70589;BME280;58152;49.202;18.744;2023-05-23T00:14:23;97130.78;;;17.06;57.47
70589;BME280;58152;49.202;18.744;2023-05-23T00:16:48;97141.47;;;17.04;57.46
70589;BME280;58152;49.202;18.744;2023-05-23T00:19:15;97129.66;;;16.97;57.46
70589;BME280;58152;49.202;18.744;2023-05-23T00:21:41;97135.09;;;16.95;57.58
70589;BME280;58152;49.202;18.744;2023-05-23T00:24:07;97132.78;;;16.91;57.74
70589;BME280;58152;49.202;18.744;2023-05-23T00:26:34;97125.91;;;16.88;57.61
70589;BME280;58152;49.202;18.744;2023-05-23T00:28:59;97131.41;;;16.85;57.48
70589;BME280;58152;49.202;18.744;2023-05-23T00:31:25;97121.06;;;16.82;57.72
70589;BME280;58152;49.202;18.744;2023-05-23T00:33:50;97120.44;;;16.79;57.45
70589;BME280;58152;49.202;18.744;2023-05-23T00:36:16;97117.91;;;16.77;57.68
70589;BME280;58152;49.202;18.744;2023-05-23T00:38:42;97127.03;;;16.73;57.81
70589;BME280;58152;49.202;18.744;2023-05-23T00:41:10;97125.41;;;16.70;57.83
70589;BME280;58152;49.202;18.744;2023-05-23T00:43:36;97123.22;;;16.64;58.04
70589;BME280;58152;49.202;18.744;2023-05-23T00:46:01;97129.50;;;16.63;57.72
70589;BME280;58152;49.202;18.744;2023-05-23T00:48:27;97127.38;;;16.56;58.11
70589;BME280;58152;49.202;18.744;2023-05-23T00:50:54;97123.28;;;16.51;58.10
70589;BME280;58152;49.202;18.744;2023-05-23T00:53:20;97126.88;;;16.50;58.40
70589;BME280;58152;49.202;18.744;2023-05-23T00:55:46;97127.31;;;16.44;58.76
70589;BME280;58152;49.202;18.744;2023-05-23T00:58:12;97133.69;;;16.42;58.56
70589;BME280;58152;49.202;18.744;2023-05-23T01:00:40;97132.94;;;16.40;58.56
70589;BME280;58152;49.202;18.744;2023-05-23T01:03:06;97132.22;;;16.38;58.63
70589;BME280;58152;49.202;18.744;2023-05-23T01:05:31;97131.25;;;16.39;58.50
70589;BME280;58152;49.202;18.744;2023-05-23T01:07:57;97132.34;;;16.36;58.68
70589;BME280;58152;49.202;18.744;2023-05-23T01:10:25;97134.13;;;16.36;58.61
70589;BME280;58152;49.202;18.744;2023-05-23T01:13:24;97133.50;;;16.32;59.09
70589;BME280;58152;49.202;18.744;2023-05-23T01:18:37;97131.28;;;16.26;58.94
70589;BME280;58152;49.202;18.744;2023-05-23T01:21:17;97135.03;;;16.11;58.99
70589;BME280;58152;49.202;18.744;2023-05-23T01:24:42;97130.81;;;16.08;59.58
70589;BME280;58152;49.202;18.744;2023-05-23T01:29:28;97121.94;;;15.96;58.99
70589;BME280;58152;49.202;18.744;2023-05-23T01:31:56;97123.22;;;15.91;59.19
70589;BME280;58152;49.202;18.744;2023-05-23T01:34:22;97131.16;;;15.91;59.13
70589;BME280;58152;49.202;18.744;2023-05-23T01:36:54;97133.16;;;15.87;59.63
70589;BME280;58152;49.202;18.744;2023-05-23T01:39:20;97126.91;;;15.75;59.53
70589;BME280;58152;49.202;18.744;2023-05-23T01:41:46;97126.72;;;15.66;59.42
70589;BME280;58152;49.202;18.744;2023-05-23T01:44:12;97137.69;;;15.60;59.42
70589;BME280;58152;49.202;18.744;2023-05-23T01:46:38;97136.94;;;15.58;59.78
70589;BME280;58152;49.202;18.744;2023-05-23T01:49:07;97125.44;;;15.59;59.64
70589;BME280;58152;49.202;18.744;2023-05-23T01:51:33;97123.41;;;15.62;59.90
70589;BME280;58152;49.202;18.744;2023-05-23T01:53:59;97125.13;;;15.63;59.72
70589;BME280;58152;49.202;18.744;2023-05-23T01:56:26;97128.50;;;15.65;59.24
70589;BME280;58152;49.202;18.744;2023-05-23T01:58:52;97135.59;;;15.65;59.28
70589;BME280;58152;49.202;18.744;2023-05-23T02:01:18;97124.19;;;15.64;59.44
70589;BME280;58152;49.202;18.744;2023-05-23T02:03:44;97126.91;;;15.63;59.62
70589;BME280;58152;49.202;18.744;2023-05-23T02:06:09;97119.19;;;15.60;59.49
70589;BME280;58152;49.202;18.744;2023-05-23T02:08:35;97125.50;;;15.57;59.13
70589;BME280;58152;49.202;18.744;2023-05-23T02:11:00;97120.47;;;15.54;59.40
70589;BME280;58152;49.202;18.744;2023-05-23T02:13:26;97123.84;;;15.56;59.25
70589;BME280;58152;49.202;18.744;2023-05-23T02:15:51;97117.91;;;15.52;59.72
70589;BME280;58152;49.202;18.744;2023-05-23T02:18:16;97122.47;;;15.50;59.72
70589;BME280;58152;49.202;18.744;2023-05-23T02:20:42;97121.94;;;15.45;59.65
70589;BME280;58152;49.202;18.744;2023-05-23T02:23:08;97129.03;;;15.45;59.85
70589;BME280;58152;49.202;18.744;2023-05-23T02:25:34;97123.09;;;15.41;59.94
70589;BME280;58152;49.202;18.744;2023-05-23T02:28:00;97131.03;;;15.41;59.82
70589;BME280;58152;49.202;18.744;2023-05-23T02:30:25;97124.13;;;15.39;59.75
70589;BME280;58152;49.202;18.744;2023-05-23T02:32:50;97118.13;;;15.37;59.96
70589;BME280;58152;49.202;18.744;2023-05-23T02:35:16;97124.88;;;15.28;60.31
70589;BME280;58152;49.202;18.744;2023-05-23T02:37:41;97127.09;;;15.21;60.19
70589;BME280;58152;49.202;18.744;2023-05-23T02:40:07;97122.00;;;15.18;60.53
70589;BME280;58152;49.202;18.744;2023-05-23T02:42:33;97133.00;;;15.12;60.50
70589;BME280;58152;49.202;18.744;2023-05-23T02:44:58;97120.59;;;15.00;60.68
70589;BME280;58152;49.202;18.744;2023-05-23T02:47:24;97121.63;;;14.97;60.81
70589;BME280;58152;49.202;18.744;2023-05-23T02:49:49;97123.44;;;14.97;60.88
70589;BME280;58152;49.202;18.744;2023-05-23T02:52:15;97118.16;;;14.97;60.83
70589;BME280;58152;49.202;18.744;2023-05-23T02:54:41;97115.31;;;15.00;60.72
70589;BME280;58152;49.202;18.744;2023-05-23T02:57:06;97127.75;;;14.98;60.79
70589;BME280;58152;49.202;18.744;2023-05-23T02:59:32;97111.38;;;14.93;60.90
70589;BME280;58152;49.202;18.744;2023-05-23T03:01:57;97115.75;;;14.94;60.34
70589;BME280;58152;49.202;18.744;2023-05-23T03:04:22;97108.84;;;14.91;60.69
70589;BME280;58152;49.202;18.744;2023-05-23T03:06:48;97103.38;;;14.94;60.65
70589;BME280;58152;49.202;18.744;2023-05-23T03:09:14;97106.31;;;14.90;60.51
70589;BME280;58152;49.202;18.744;2023-05-23T03:11:41;97101.97;;;14.89;60.64
70589;BME280;58152;49.202;18.744;2023-05-23T03:14:07;97105.56;;;14.88;60.81
70589;BME280;58152;49.202;18.744;2023-05-23T03:16:32;97108.31;;;14.86;60.63
70589;BME280;58152;49.202;18.744;2023-05-23T03:18:58;97105.03;;;14.83;60.61
70589;BME280;58152;49.202;18.744;2023-05-23T03:21:23;97107.00;;;14.79;60.51
70589;BME280;58152;49.202;18.744;2023-05-23T03:23:49;97111.38;;;14.80;60.79
70589;BME280;58152;49.202;18.744;2023-05-23T03:26:14;97105.63;;;14.73;60.58
70589;BME280;58152;49.202;18.744;2023-05-23T03:28:40;97103.94;;;14.72;60.85
70589;BME280;58152;49.202;18.744;2023-05-23T03:31:05;97103.09;;;14.72;61.04
70589;BME280;58152;49.202;18.744;2023-05-23T03:33:31;97106.69;;;14.71;61.11
70589;BME280;58152;49.202;18.744;2023-05-23T03:35:56;97103.19;;;14.70;60.99
70589;BME280;58152;49.202;18.744;2023-05-23T03:38:22;97090.19;;;14.67;61.02
70589;BME280;58152;49.202;18.744;2023-05-23T03:40:47;97105.19;;;14.67;61.06
70589;BME280;58152;49.202;18.744;2023-05-23T03:43:12;97097.78;;;14.59;61.50
70589;BME280;58152;49.202;18.744;2023-05-23T03:45:38;97100.59;;;14.56;61.59
70589;BME280;58152;49.202;18.744;2023-05-23T03:48:03;97094.59;;;14.54;61.84
70589;BME280;58152;49.202;18.744;2023-05-23T03:50:29;97095.72;;;14.50;61.68
70589;BME280;58152;49.202;18.744;2023-05-23T03:52:54;97093.63;;;14.55;61.63
70589;BME280;58152;49.202;18.744;2023-05-23T03:55:20;97095.63;;;14.52;61.94
70589;BME280;58152;49.202;18.744;2023-05-23T03:57:55;97080.84;;;14.49;61.89
70589;BME280;58152;49.202;18.744;2023-05-23T04:00:20;97090.44;;;14.50;61.74
70589;BME280;58152;49.202;18.744;2023-05-23T04:02:46;97090.63;;;14.47;61.78
70589;BME280;58152;49.202;18.744;2023-05-23T04:05:12;97092.38;;;14.48;62.10
70589;BME280;58152;49.202;18.744;2023-05-23T04:07:37;97092.13;;;14.51;62.37
70589;BME280;58152;49.202;18.744;2023-05-23T04:10:03;97093.09;;;14.50;62.08
70589;BME280;58152;49.202;18.744;2023-05-23T04:12:29;97087.97;;;14.47;62.35
70589;BME280;58152;49.202;18.744;2023-05-23T04:14:57;97084.34;;;14.49;62.41
70589;BME280;58152;49.202;18.744;2023-05-23T04:17:23;97090.34;;;14.52;62.29
70589;BME280;58152;49.202;18.744;2023-05-23T04:19:52;97092.25;;;14.49;62.17
70589;BME280;58152;49.202;18.744;2023-05-23T04:22:18;97083.50;;;14.49;62.49
70589;BME280;58152;49.202;18.744;2023-05-23T04:24:43;97089.63;;;14.49;62.31
70589;BME280;58152;49.202;18.744;2023-05-23T04:27:09;97085.19;;;14.50;62.86
70589;BME280;58152;49.202;18.744;2023-05-23T04:29:34;97084.34;;;14.49;62.79
70589;BME280;58152;49.202;18.744;2023-05-23T04:32:03;97087.94;;;14.48;62.50
70589;BME280;58152;49.202;18.744;2023-05-23T04:34:32;97084.59;;;14.45;62.95
70589;BME280;58152;49.202;18.744;2023-05-23T04:36:59;97084.59;;;14.45;62.88
70589;BME280;58152;49.202;18.744;2023-05-23T04:39:26;97075.06;;;14.42;62.89
70589;BME280;58152;49.202;18.744;2023-05-23T04:41:51;97076.56;;;14.46;62.92
70589;BME280;58152;49.202;18.744;2023-05-23T04:44:18;97087.09;;;14.48;63.10
70589;BME280;58152;49.202;18.744;2023-05-23T04:46:44;97076.69;;;14.45;62.65
70589;BME280;58152;49.202;18.744;2023-05-23T04:49:10;97077.63;;;14.44;63.11
70589;BME280;58152;49.202;18.744;2023-05-23T04:51:37;97071.59;;;14.42;63.30
70589;BME280;58152;49.202;18.744;2023-05-23T04:54:03;97077.94;;;14.39;63.01
70589;BME280;58152;49.202;18.744;2023-05-23T04:56:28;97065.66;;;14.38;63.12
70589;BME280;58152;49.202;18.744;2023-05-23T04:58:54;97068.59;;;14.48;63.10
70589;BME280;58152;49.202;18.744;2023-05-23T05:01:20;97079.16;;;14.48;63.15
70589;BME280;58152;49.202;18.744;2023-05-23T05:03:48;97068.59;;;14.48;63.33
70589;BME280;58152;49.202;18.744;2023-05-23T05:06:14;97065.16;;;14.46;63.59
70589;BME280;58152;49.202;18.744;2023-05-23T05:08:40;97064.91;;;14.51;63.54
70589;BME280;58152;49.202;18.744;2023-05-23T05:11:06;97065.75;;;14.51;63.42
70589;BME280;58152;49.202;18.744;2023-05-23T05:13:31;97066.50;;;14.53;63.47
70589;BME280;58152;49.202;18.744;2023-05-23T05:15:57;97061.00;;;14.56;63.57
70589;BME280;58152;49.202;18.744;2023-05-23T05:18:24;97054.81;;;14.57;63.70
70589;BME280;58152;49.202;18.744;2023-05-23T05:20:50;97057.34;;;14.59;63.54
70589;BME280;58152;49.202;18.744;2023-05-23T05:23:15;97057.03;;;14.63;63.43
70589;BME280;58152;49.202;18.744;2023-05-23T05:25:41;97057.03;;;14.63;63.54
70589;BME280;58152;49.202;18.744;2023-05-23T05:28:06;97042.22;;;14.61;63.65
70589;BME280;58152;49.202;18.744;2023-05-23T05:30:32;97047.31;;;14.64;63.45
70589;BME280;58152;49.202;18.744;2023-05-23T05:33:04;97043.81;;;14.63;63.48
70589;BME280;58152;49.202;18.744;2023-05-23T05:35:33;97047.19;;;14.65;63.79
70589;BME280;58152;49.202;18.744;2023-05-23T05:38:00;97038.44;;;14.65;63.67
70589;BME280;58152;49.202;18.744;2023-05-23T05:40:26;97039.19;;;14.67;63.75
70589;BME280;58152;49.202;18.744;2023-05-23T05:42:52;97032.13;;;14.67;63.99
70589;BME280;58152;49.202;18.744;2023-05-23T05:45:17;97032.00;;;14.69;63.78
70589;BME280;58152;49.202;18.744;2023-05-23T05:47:44;97033.81;;;14.68;63.96
70589;BME280;58152;49.202;18.744;2023-05-23T05:50:13;97031.81;;;14.72;64.30
70589;BME280;58152;49.202;18.744;2023-05-23T05:52:41;97030.00;;;14.72;64.26
70589;BME280;58152;49.202;18.744;2023-05-23T05:55:09;97023.78;;;14.73;64.61
70589;BME280;58152;49.202;18.744;2023-05-23T05:57:41;97028.84;;;14.77;64.42
70589;BME280;58152;49.202;18.744;2023-05-23T06:00:07;97026.94;;;14.79;64.66
70589;BME280;58152;49.202;18.744;2023-05-23T06:02:38;97027.06;;;14.77;64.61
70589;BME280;58152;49.202;18.744;2023-05-23T06:05:08;97024.31;;;14.79;64.59
70589;BME280;58152;49.202;18.744;2023-05-23T06:07:39;97024.94;;;14.82;64.52
70589;BME280;58152;49.202;18.744;2023-05-23T06:10:09;97019.34;;;14.87;64.38
70589;BME280;58152;49.202;18.744;2023-05-23T06:12:38;97014.06;;;14.87;64.48
70589;BME280;58152;49.202;18.744;2023-05-23T06:15:16;97016.41;;;14.91;65.03
70589;BME280;58152;49.202;18.744;2023-05-23T06:17:41;97015.44;;;14.92;64.75
70589;BME280;58152;49.202;18.744;2023-05-23T06:20:09;97016.09;;;14.96;64.84
70589;BME280;58152;49.202;18.744;2023-05-23T06:22:35;97012.41;;;14.98;64.45
70589;BME280;58152;49.202;18.744;2023-05-23T06:25:04;97007.13;;;14.98;64.49
70589;BME280;58152;49.202;18.744;2023-05-23T06:27:29;97000.88;;;14.99;64.31
70589;BME280;58152;49.202;18.744;2023-05-23T06:30:01;97010.19;;;15.05;64.81
70589;BME280;58152;49.202;18.744;2023-05-23T06:32:27;97004.91;;;15.05;64.76
70589;BME280;58152;49.202;18.744;2023-05-23T06:34:53;97001.81;;;15.11;64.98
70589;BME280;58152;49.202;18.744;2023-05-23T06:37:18;97013.78;;;15.17;64.91
70589;BME280;58152;49.202;18.744;2023-05-23T06:39:43;97006.91;;;15.14;64.91
70589;BME280;58152;49.202;18.744;2023-05-23T06:42:09;97012.00;;;15.17;64.85
70589;BME280;58152;49.202;18.744;2023-05-23T06:44:34;97011.03;;;15.18;64.52
70589;BME280;58152;49.202;18.744;2023-05-23T06:47:00;97005.44;;;15.23;64.29
70589;BME280;58152;49.202;18.744;2023-05-23T06:49:25;96997.63;;;15.21;64.54
70589;BME280;58152;49.202;18.744;2023-05-23T06:51:53;96998.97;;;15.27;64.33
70589;BME280;58152;49.202;18.744;2023-05-23T06:54:18;96998.03;;;15.28;64.66
70589;BME280;58152;49.202;18.744;2023-05-23T06:56:46;96996.97;;;15.31;64.71
70589;BME280;58152;49.202;18.744;2023-05-23T06:59:12;96993.88;;;15.37;65.00
70589;BME280;58152;49.202;18.744;2023-05-23T07:01:37;96989.63;;;15.47;64.48
70589;BME280;58152;49.202;18.744;2023-05-23T07:04:03;96988.47;;;15.51;64.53
70589;BME280;58152;49.202;18.744;2023-05-23T07:06:28;96991.75;;;15.55;64.58
70589;BME280;58152;49.202;18.744;2023-05-23T07:08:55;96990.78;;;15.56;64.21
70589;BME280;58152;49.202;18.744;2023-05-23T07:11:20;96986.97;;;15.60;64.46
70589;BME280;58152;49.202;18.744;2023-05-23T07:13:46;96980.00;;;15.59;64.06
70589;BME280;58152;49.202;18.744;2023-05-23T07:16:12;96984.03;;;15.64;64.66
70589;BME280;58152;49.202;18.744;2023-05-23T07:18:37;96985.72;;;15.65;64.45
70589;BME280;58152;49.202;18.744;2023-05-23T07:21:03;96977.69;;;15.67;64.48
70589;BME280;58152;49.202;18.744;2023-05-23T07:23:31;96982.41;;;15.74;64.81
70589;BME280;58152;49.202;18.744;2023-05-23T07:25:57;96985.06;;;15.74;64.22
70589;BME280;58152;49.202;18.744;2023-05-23T07:28:22;96979.56;;;15.78;64.68
70589;BME280;58152;49.202;18.744;2023-05-23T07:30:47;96975.84;;;15.80;64.52
70589;BME280;58152;49.202;18.744;2023-05-23T07:33:14;96981.53;;;15.87;64.83
70589;BME280;58152;49.202;18.744;2023-05-23T07:35:43;96983.09;;;15.89;64.83
70589;BME280;58152;49.202;18.744;2023-05-23T07:38:08;96977.72;;;15.91;64.43
70589;BME280;58152;49.202;18.744;2023-05-23T07:40:34;96978.00;;;15.99;64.24
70589;BME280;58152;49.202;18.744;2023-05-23T07:43:00;96979.56;;;16.01;64.54
70589;BME280;58152;49.202;18.744;2023-05-23T07:45:25;96970.91;;;15.99;65.02
70589;BME280;58152;49.202;18.744;2023-05-23T07:47:51;96970.47;;;16.06;64.83
70589;BME280;58152;49.202;18.744;2023-05-23T07:50:17;96970.00;;;16.12;64.51
70589;BME280;58152;49.202;18.744;2023-05-23T07:52:43;96968.94;;;16.14;64.82
70589;BME280;58152;49.202;18.744;2023-05-23T07:55:08;96963.44;;;16.17;64.63
70589;BME280;58152;49.202;18.744;2023-05-23T07:57:34;96953.56;;;16.19;65.06
70589;BME280;58152;49.202;18.744;2023-05-23T07:59:59;96954.06;;;16.24;65.28
70589;BME280;58152;49.202;18.744;2023-05-23T08:02:25;96956.38;;;16.29;65.01
70589;BME280;58152;49.202;18.744;2023-05-23T08:04:51;96949.03;;;16.33;65.23
70589;BME280;58152;49.202;18.744;2023-05-23T08:07:17;96956.31;;;16.42;64.83
70589;BME280;58152;49.202;18.744;2023-05-23T08:09:43;96955.94;;;16.46;65.21
70589;BME280;58152;49.202;18.744;2023-05-23T08:12:08;96952.97;;;16.51;65.31
70589;BME280;58152;49.202;18.744;2023-05-23T08:14:34;96954.28;;;16.57;65.18
70589;BME280;58152;49.202;18.744;2023-05-23T08:17:00;96950.59;;;16.59;65.58
70589;BME280;58152;49.202;18.744;2023-05-23T08:19:26;96951.28;;;16.61;65.64
70589;BME280;58152;49.202;18.744;2023-05-23T08:21:52;96940.56;;;16.63;66.02
70589;BME280;58152;49.202;18.744;2023-05-23T08:24:21;96949.22;;;16.77;66.32
70589;BME280;58152;49.202;18.744;2023-05-23T08:26:47;96938.72;;;16.76;65.96
70589;BME280;58152;49.202;18.744;2023-05-23T08:29:13;96951.16;;;16.87;66.12
70589;BME280;58152;49.202;18.744;2023-05-23T08:31:38;96941.03;;;16.92;66.36
70589;BME280;58152;49.202;18.744;2023-05-23T08:34:05;96934.78;;;16.93;66.47
70589;BME280;58152;49.202;18.744;2023-05-23T08:36:30;96925.41;;;17.00;66.66
70589;BME280;58152;49.202;18.744;2023-05-23T08:39:00;96933.56;;;17.08;66.90
70589;BME280;58152;49.202;18.744;2023-05-23T08:41:26;96941.53;;;17.19;67.04
70589;BME280;58152;49.202;18.744;2023-05-23T08:43:52;96930.31;;;17.27;67.43
70589;BME280;58152;49.202;18.744;2023-05-23T08:46:17;96936.25;;;17.42;67.36
70589;BME280;58152;49.202;18.744;2023-05-23T08:48:51;96931.03;;;17.51;67.53
70589;BME280;58152;49.202;18.744;2023-05-23T08:51:17;96927.66;;;17.61;67.01
70589;BME280;58152;49.202;18.744;2023-05-23T08:53:45;96925.81;;;17.72;66.62
70589;BME280;58152;49.202;18.744;2023-05-23T08:56:12;96921.34;;;17.84;66.71
70589;BME280;58152;49.202;18.744;2023-05-23T08:58:42;96930.72;;;17.99;66.93
70589;BME280;58152;49.202;18.744;2023-05-23T09:01:14;96912.22;;;18.09;66.66
70589;BME280;58152;49.202;18.744;2023-05-23T09:03:42;96903.88;;;18.14;66.58
70589;BME280;58152;49.202;18.744;2023-05-23T09:06:09;96903.00;;;18.24;66.16
70589;BME280;58152;49.202;18.744;2023-05-23T09:08:36;96917.06;;;18.36;66.09
70589;BME280;58152;49.202;18.744;2023-05-23T09:11:03;96906.31;;;18.38;66.11
70589;BME280;58152;49.202;18.744;2023-05-23T09:13:29;96901.84;;;18.38;65.92
70589;BME280;58152;49.202;18.744;2023-05-23T09:18:25;96912.69;;;18.46;64.55
70589;BME280;58152;49.202;18.744;2023-05-23T09:20:51;96901.78;;;18.49;64.47
70589;BME280;58152;49.202;18.744;2023-05-23T09:23:16;96902.38;;;18.53;64.25
70589;BME280;58152;49.202;18.744;2023-05-23T09:25:46;96904.03;;;18.54;64.27
70589;BME280;58152;49.202;18.744;2023-05-23T09:28:14;96894.00;;;18.58;64.20
70589;BME280;58152;49.202;18.744;2023-05-23T09:30:40;96902.16;;;18.66;64.25
70589;BME280;58152;49.202;18.744;2023-05-23T09:33:05;96897.78;;;18.76;63.78
70589;BME280;58152;49.202;18.744;2023-05-23T09:35:31;96896.56;;;18.80;63.20
70589;BME280;58152;49.202;18.744;2023-05-23T09:37:57;96907.94;;;18.92;63.14
70589;BME280;58152;49.202;18.744;2023-05-23T09:40:31;96901.97;;;18.99;62.86
70589;BME280;58152;49.202;18.744;2023-05-23T09:43:01;96902.84;;;19.10;62.90
70589;BME280;58152;49.202;18.744;2023-05-23T09:45:31;96907.34;;;19.19;63.29
70589;BME280;58152;49.202;18.744;2023-05-23T09:47:57;96906.69;;;19.26;63.50
70589;BME280;58152;49.202;18.744;2023-05-23T09:50:34;96904.47;;;19.32;63.86
70589;BME280;58152;49.202;18.744;2023-05-23T09:53:03;96902.97;;;19.39;63.57
70589;BME280;58152;49.202;18.744;2023-05-23T09:55:34;96890.22;;;19.42;63.16
70589;BME280;58152;49.202;18.744;2023-05-23T09:58:00;96894.44;;;19.45;62.54
70589;BME280;58152;49.202;18.744;2023-05-23T10:00:35;96882.25;;;19.42;62.41
70589;BME280;58152;49.202;18.744;2023-05-23T10:03:10;96898.25;;;19.52;61.79
70589;BME280;58152;49.202;18.744;2023-05-23T10:05:55;96880.19;;;19.55;59.98
70589;BME280;58152;49.202;18.744;2023-05-23T10:08:47;96883.19;;;19.62;60.53
70589;BME280;58152;49.202;18.744;2023-05-23T10:14:01;96878.94;;;19.60;60.69
70589;BME280;58152;49.202;18.744;2023-05-23T10:19:24;96866.56;;;19.79;61.13
70589;BME280;58152;49.202;18.744;2023-05-23T10:21:57;96862.91;;;19.90;61.09
70589;BME280;58152;49.202;18.744;2023-05-23T10:24:24;96858.16;;;20.03;60.36
70589;BME280;58152;49.202;18.744;2023-05-23T10:27:03;96856.91;;;20.08;59.95
70589;BME280;58152;49.202;18.744;2023-05-23T10:29:35;96847.91;;;20.18;59.27
70589;BME280;58152;49.202;18.744;2023-05-23T10:35:14;96855.06;;;20.18;59.88
70589;BME280;58152;49.202;18.744;2023-05-23T10:37:51;96850.41;;;20.20;60.05
70589;BME280;58152;49.202;18.744;2023-05-23T10:43:48;96842.44;;;20.20;60.08
70589;BME280;58152;49.202;18.744;2023-05-23T10:46:55;96841.31;;;20.32;59.80
70589;BME280;58152;49.202;18.744;2023-05-23T10:49:55;96839.47;;;20.52;59.88
70589;BME280;58152;49.202;18.744;2023-05-23T10:56:06;96839.47;;;20.42;58.98
70589;BME280;58152;49.202;18.744;2023-05-23T10:58:54;96825.19;;;20.53;58.30
70589;BME280;58152;49.202;18.744;2023-05-23T11:01:22;96838.75;;;20.60;58.08
70589;BME280;58152;49.202;18.744;2023-05-23T11:04:13;96823.56;;;20.70;57.71
70589;BME280;58152;49.202;18.744;2023-05-23T11:10:15;96840.97;;;21.11;56.54
70589;BME280;58152;49.202;18.744;2023-05-23T11:12:45;96827.06;;;21.17;56.71
70589;BME280;58152;49.202;18.744;2023-05-23T11:17:55;96815.34;;;21.28;56.22
70589;BME280;58152;49.202;18.744;2023-05-23T11:20:37;96821.94;;;21.34;55.11
70589;BME280;58152;49.202;18.744;2023-05-23T11:23:13;96836.38;;;21.41;55.62
70589;BME280;58152;49.202;18.744;2023-05-23T11:25:44;96822.47;;;21.37;55.25
70589;BME280;58152;49.202;18.744;2023-05-23T11:28:21;96819.13;;;21.53;54.67
70589;BME280;58152;49.202;18.744;2023-05-23T11:30:48;96796.44;;;21.49;54.69
70589;BME280;58152;49.202;18.744;2023-05-23T11:33:15;96801.91;;;21.47;54.55
70589;BME280;58152;49.202;18.744;2023-05-23T11:35:48;96795.50;;;21.40;54.30
70589;BME280;58152;49.202;18.744;2023-05-23T11:38:16;96796.78;;;21.36;54.87
70589;BME280;58152;49.202;18.744;2023-05-23T11:51:24;96806.50;;;21.55;53.80
70589;BME280;58152;49.202;18.744;2023-05-23T11:54:06;96805.81;;;21.71;53.45
70589;BME280;58152;49.202;18.744;2023-05-23T11:57:43;96791.03;;;21.76;53.22
70589;BME280;58152;49.202;18.744;2023-05-23T12:00:09;96788.41;;;21.85;53.25
70589;BME280;58152;49.202;18.744;2023-05-23T12:02:41;96785.00;;;21.92;53.24
70589;BME280;58152;49.202;18.744;2023-05-23T12:05:29;96787.81;;;22.08;52.47
70589;BME280;58152;49.202;18.744;2023-05-23T12:07:59;96781.31;;;22.11;53.60
70589;BME280;58152;49.202;18.744;2023-05-23T12:10:26;96788.84;;;22.33;53.65
70589;BME280;58152;49.202;18.744;2023-05-23T12:12:52;96776.75;;;22.47;53.83
70589;BME280;58152;49.202;18.744;2023-05-23T12:15:17;96780.72;;;22.69;54.49
70589;BME280;58152;49.202;18.744;2023-05-23T12:17:44;96776.97;;;22.88;54.73
70589;BME280;58152;49.202;18.744;2023-05-23T12:20:15;96780.13;;;23.10;54.62
70589;BME280;58152;49.202;18.744;2023-05-23T12:22:41;96779.72;;;23.39;54.31
70589;BME280;58152;49.202;18.744;2023-05-23T12:25:08;96776.50;;;23.35;54.84
70589;BME280;58152;49.202;18.744;2023-05-23T12:27:42;96764.00;;;23.44;53.93
70589;BME280;58152;49.202;18.744;2023-05-23T12:30:14;96769.59;;;23.75;53.09
70589;BME280;58152;49.202;18.744;2023-05-23T12:32:45;96756.88;;;23.85;52.89
70589;BME280;58152;49.202;18.744;2023-05-23T12:35:13;96763.72;;;23.71;52.66
70589;BME280;58152;49.202;18.744;2023-05-23T12:37:49;96762.56;;;23.90;52.26
70589;BME280;58152;49.202;18.744;2023-05-23T12:40:15;96767.13;;;24.06;52.88
70589;BME280;58152;49.202;18.744;2023-05-23T12:42:49;96762.22;;;24.18;52.20
70589;BME280;58152;49.202;18.744;2023-05-23T12:45:34;96773.59;;;24.28;51.93
70589;BME280;58152;49.202;18.744;2023-05-23T12:48:01;96772.13;;;24.33;52.24
70589;BME280;58152;49.202;18.744;2023-05-23T12:50:29;96762.59;;;24.47;51.65
70589;BME280;58152;49.202;18.744;2023-05-23T12:52:55;96763.53;;;24.63;51.24
70589;BME280;58152;49.202;18.744;2023-05-23T12:55:21;96770.03;;;24.76;51.13
70589;BME280;58152;49.202;18.744;2023-05-23T12:57:46;96763.13;;;24.90;50.80
70589;BME280;58152;49.202;18.744;2023-05-23T13:00:12;96762.72;;;25.01;49.95
70589;BME280;58152;49.202;18.744;2023-05-23T13:02:41;96745.09;;;25.15;49.85
70589;BME280;58152;49.202;18.744;2023-05-23T13:05:06;96736.34;;;25.21;49.59
70589;BME280;58152;49.202;18.744;2023-05-23T13:07:32;96730.94;;;25.29;49.50
70589;BME280;58152;49.202;18.744;2023-05-23T13:09:57;96732.97;;;25.27;49.68
70589;BME280;58152;49.202;18.744;2023-05-23T13:12:23;96734.34;;;25.15;49.33
70589;BME280;58152;49.202;18.744;2023-05-23T13:14:49;96740.50;;;24.93;49.65
70589;BME280;58152;49.202;18.744;2023-05-23T13:17:15;96740.03;;;24.73;49.92
70589;BME280;58152;49.202;18.744;2023-05-23T13:19:41;96751.16;;;24.53;49.96
70589;BME280;58152;49.202;18.744;2023-05-23T13:22:06;96766.94;;;24.40;50.46
70589;BME280;58152;49.202;18.744;2023-05-23T13:24:35;96757.72;;;24.26;50.38
70589;BME280;58152;49.202;18.744;2023-05-23T13:27:02;96753.69;;;24.14;51.22
70589;BME280;58152;49.202;18.744;2023-05-23T13:29:28;96756.53;;;24.04;51.12
70589;BME280;58152;49.202;18.744;2023-05-23T13:31:53;96754.72;;;23.97;51.41
70589;BME280;58152;49.202;18.744;2023-05-23T13:34:21;96741.97;;;23.91;51.37
70589;BME280;58152;49.202;18.744;2023-05-23T13:36:49;96745.16;;;23.86;51.58